createdAt,value
2018-07-21T00:02:01.481Z,100563.15
2018-07-21T00:04:29.696Z,100563.15
2018-07-21T00:06:57.936Z,100558.80
2018-07-21T00:09:26.189Z,100565.53
2018-07-21T00:11:54.401Z,100567.31
2018-07-21T00:14:22.630Z,100565.44
2018-07-21T00:16:50.880Z,100566.27
2018-07-21T00:19:19.109Z,100564.41
2018-07-21T00:21:47.349Z,100568.97
2018-07-21T00:24:15.568Z,100567.62
2018-07-21T00:26:49.724Z,100561.34
2018-07-21T00:29:19.545Z,100558.02
2018-07-21T00:31:47.790Z,100555.23
2018-07-21T00:34:16.037Z,100554.28
2018-07-21T00:36:44.307Z,100546.09
2018-07-21T00:39:14.243Z,100540.09
2018-07-21T00:41:42.525Z,100545.63
2018-07-21T00:44:10.769Z,100553.09
2018-07-21T00:46:39.002Z,100556.22
2018-07-21T00:49:07.357Z,100553.22
2018-07-21T00:51:35.897Z,100551.67
2018-07-21T00:54:04.113Z,100558.56
2018-07-21T00:56:32.372Z,100558.15
2018-07-21T00:59:00.608Z,100557.33
2018-07-21T01:01:28.844Z,100556.40
2018-07-21T01:03:57.076Z,100562.00
2018-07-21T01:06:25.369Z,100565.94
2018-07-21T01:08:53.612Z,100567.28
2018-07-21T01:11:21.842Z,100572.37
2018-07-21T01:13:50.113Z,100572.05
2018-07-21T01:16:18.400Z,100575.52
2018-07-21T01:18:46.620Z,100577.59
2018-07-21T01:21:14.848Z,100579.97
2018-07-21T01:23:43.068Z,100573.97
2018-07-21T01:26:11.289Z,100567.34
2018-07-21T01:28:39.524Z,100564.64
2018-07-21T01:31:07.753Z,100564.64
2018-07-21T01:33:35.988Z,100567.34
2018-07-21T01:36:04.192Z,100565.47
2018-07-21T01:38:32.429Z,100566.41
2018-07-21T01:41:00.628Z,100562.20
2018-07-21T01:43:28.856Z,100562.52
2018-07-21T01:45:57.121Z,100556.64
2018-07-21T01:48:25.361Z,100549.16
2018-07-21T01:50:53.576Z,100546.88
2018-07-21T01:53:21.812Z,100549.98
2018-07-21T01:55:50.049Z,100552.58
2018-07-21T01:58:18.261Z,100547.40
2018-07-21T02:00:46.500Z,100547.74
2018-07-21T02:03:14.744Z,100545.05
2018-07-21T02:05:42.988Z,100545.91
2018-07-21T02:08:11.204Z,100546.00
2018-07-21T02:10:39.449Z,100542.06
2018-07-21T02:13:07.692Z,100538.44
2018-07-21T02:15:35.923Z,100535.87
2018-07-21T02:18:04.125Z,100532.25
2018-07-21T02:20:32.361Z,100531.84
2018-07-21T02:23:00.622Z,100534.31
2018-07-21T02:25:28.860Z,100530.92
2018-07-21T02:27:57.069Z,100531.02
2018-07-21T02:30:25.312Z,100528.11
2018-07-21T02:32:53.529Z,100528.31
2018-07-21T02:35:21.753Z,100523.03
2018-07-21T02:37:49.980Z,100516.51
2018-07-21T02:40:18.224Z,100517.45
2018-07-21T02:42:46.460Z,100511.86
2018-07-21T02:45:14.702Z,100508.14
2018-07-21T02:47:42.937Z,100517.76
2018-07-21T02:50:11.165Z,100518.16
2018-07-21T02:52:39.428Z,100512.56
2018-07-21T02:55:07.824Z,100515.35
2018-07-21T02:57:36.109Z,100517.41
2018-07-21T03:00:04.817Z,100518.88
2018-07-21T03:02:33.044Z,100524.66
2018-07-21T03:05:01.249Z,100532.73
2018-07-21T03:07:29.469Z,100532.22
2018-07-21T03:09:57.737Z,100527.55
2018-07-21T03:12:25.933Z,100523.92
2018-07-21T03:14:54.161Z,100521.23
2018-07-21T03:17:22.376Z,100515.86
2018-07-21T03:19:50.604Z,100516.89
2018-07-21T03:22:18.841Z,100519.06
2018-07-21T03:24:47.073Z,100523.09
2018-07-21T03:27:15.276Z,100521.64
2018-07-21T03:29:43.509Z,100532.40
2018-07-21T03:32:11.848Z,100526.94
2018-07-21T03:34:40.061Z,100532.91
2018-07-21T03:37:08.296Z,100530.66
2018-07-21T03:39:36.545Z,100540.58
2018-07-21T03:42:04.837Z,100535.41
2018-07-21T03:44:33.056Z,100532.92
2018-07-21T03:47:01.294Z,100531.27
2018-07-21T03:49:29.541Z,100525.26
2018-07-21T03:51:57.753Z,100521.23
2018-07-21T03:54:25.971Z,100521.02
2018-07-21T03:56:54.188Z,100519.05
2018-07-21T03:59:22.648Z,100524.11
2018-07-21T04:01:50.889Z,100522.97
2018-07-21T04:04:19.120Z,100518.31
2018-07-21T04:06:47.337Z,100519.89
2018-07-21T04:09:15.593Z,100520.60
2018-07-21T04:11:43.841Z,100521.75
2018-07-21T04:14:12.118Z,100527.64
2018-07-21T04:16:40.366Z,100527.38
2018-07-21T04:19:08.973Z,100527.94
2018-07-21T04:21:37.204Z,100529.32
2018-07-21T04:24:05.465Z,100535.16
2018-07-21T04:26:33.653Z,100538.19
2018-07-21T04:29:01.853Z,100543.41
2018-07-21T04:31:30.101Z,100546.05
2018-07-21T04:33:58.308Z,100553.88
2018-07-21T04:36:26.585Z,100556.83
2018-07-21T04:38:54.801Z,100556.89
2018-07-21T04:41:23.052Z,100565.84
2018-07-21T04:43:51.304Z,100565.75
2018-07-21T04:46:19.661Z,100566.97
2018-07-21T04:48:47.957Z,100568.47
2018-07-21T04:51:16.277Z,100568.66
2018-07-21T04:53:44.505Z,100573.90
2018-07-21T04:56:12.764Z,100574.59
2018-07-21T04:58:41.024Z,100573.96
2018-07-21T05:01:09.337Z,100591.40
2018-07-21T05:03:37.525Z,100591.91
2018-07-21T05:06:05.761Z,100586.45
2018-07-21T05:08:33.963Z,100590.25
2018-07-21T05:11:02.179Z,100591.40
2018-07-21T05:13:30.373Z,100589.55
2018-07-21T05:15:58.597Z,100590.38
2018-07-21T05:18:26.805Z,100591.27
2018-07-21T05:20:55.041Z,100590.00
2018-07-21T05:23:23.249Z,100584.31
2018-07-21T05:25:52.356Z,100582.45
2018-07-21T05:28:20.579Z,100586.80
2018-07-21T05:30:48.805Z,100586.28
2018-07-21T05:33:17.065Z,100580.41
2018-07-21T05:35:45.301Z,100587.44
2018-07-21T05:38:13.517Z,100598.62
2018-07-21T05:40:41.781Z,100594.53
2018-07-21T05:43:10.020Z,100596.83
2018-07-21T05:45:38.265Z,100594.94
2018-07-21T05:48:06.121Z,100601.97
2018-07-21T05:50:34.348Z,100602.41
2018-07-21T05:53:02.664Z,100608.03
2018-07-21T05:55:30.877Z,100608.16
2018-07-21T05:57:59.100Z,100614.77
2018-07-21T06:00:27.313Z,100616.43
2018-07-21T06:02:55.588Z,100615.60
2018-07-21T06:05:23.836Z,100615.28
2018-07-21T06:07:52.051Z,100617.97
2018-07-21T06:10:20.313Z,100622.50
2018-07-21T06:12:48.540Z,100630.05
2018-07-21T06:15:16.817Z,100629.76
2018-07-21T06:17:45.058Z,100630.88
2018-07-21T06:20:13.289Z,100633.69
2018-07-21T06:22:41.529Z,100638.87
2018-07-21T06:25:09.880Z,100638.99
2018-07-21T06:27:38.033Z,100643.66
2018-07-21T06:30:06.393Z,100640.78
2018-07-21T06:32:34.600Z,100645.44
2018-07-21T06:35:02.829Z,100647.70
2018-07-21T06:37:31.065Z,100653.59
2018-07-21T06:39:59.308Z,100655.06
2018-07-21T06:42:27.749Z,100657.36
2018-07-21T06:44:55.993Z,100655.94
2018-07-21T06:47:24.213Z,100656.77
2018-07-21T06:49:52.424Z,100663.10
2018-07-21T06:52:20.632Z,100664.77
2018-07-21T06:54:48.899Z,100671.25
2018-07-21T06:57:17.148Z,100672.59
2018-07-21T06:59:45.373Z,100665.88
2018-07-21T07:02:13.612Z,100667.86
2018-07-21T07:04:41.850Z,100665.94
2018-07-21T07:07:10.089Z,100669.58
2018-07-21T07:09:38.333Z,100664.16
2018-07-21T07:12:06.597Z,100662.27
2018-07-21T07:14:34.813Z,100669.30
2018-07-21T07:17:03.037Z,100666.62
2018-07-21T07:19:31.265Z,100662.20
2018-07-21T07:21:59.494Z,100659.44
2018-07-21T07:24:27.749Z,100655.84
2018-07-21T07:26:55.957Z,100656.36
2018-07-21T07:29:24.269Z,100656.88
2018-07-21T07:31:52.517Z,100661.73
2018-07-21T07:34:20.755Z,100659.75
2018-07-21T07:36:48.969Z,100652.41
2018-07-21T07:39:17.200Z,100657.70
2018-07-21T07:41:45.420Z,100658.23
2018-07-21T07:44:13.661Z,100658.78
2018-07-21T07:46:41.897Z,100660.69
2018-07-21T07:49:10.109Z,100666.98
2018-07-21T07:51:38.332Z,100648.91
2018-07-21T07:54:06.553Z,100656.73
2018-07-21T07:56:34.785Z,100651.75
2018-07-21T07:59:03.005Z,100652.46
2018-07-21T08:01:31.229Z,100651.12
2018-07-21T08:03:59.445Z,100645.47
2018-07-21T08:06:27.677Z,100645.27
2018-07-21T08:08:55.895Z,100645.03
2018-07-21T08:11:24.145Z,100646.89
2018-07-21T08:13:52.377Z,100644.52
2018-07-21T08:16:20.620Z,100641.63
2018-07-21T08:18:48.940Z,100630.37
2018-07-21T08:21:17.180Z,100636.89
2018-07-21T08:23:45.436Z,100627.48
2018-07-21T08:26:13.679Z,100632.23
2018-07-21T08:28:41.893Z,100633.06
2018-07-21T08:31:10.147Z,100629.98
2018-07-21T08:33:38.716Z,100622.74
2018-07-21T08:36:07.741Z,100621.20
2018-07-21T08:38:36.037Z,100616.17
2018-07-21T08:41:04.273Z,100613.48
2018-07-21T08:43:32.508Z,100616.80
2018-07-21T08:46:00.777Z,100618.15
2018-07-21T08:48:29.011Z,100617.34
2018-07-21T08:50:57.287Z,100615.69
2018-07-21T08:53:25.505Z,100614.16
2018-07-21T08:55:53.772Z,100620.71
2018-07-21T08:58:21.949Z,100618.05
2018-07-21T09:00:50.189Z,100616.39
2018-07-21T09:03:18.405Z,100613.70
2018-07-21T09:05:46.675Z,100617.73
2018-07-21T09:08:14.881Z,100612.98
2018-07-21T09:10:43.125Z,100610.67
2018-07-21T09:13:11.421Z,100613.17
2018-07-21T09:15:39.689Z,100609.55
2018-07-21T09:18:07.903Z,100603.45
2018-07-21T09:20:36.132Z,100608.32
2018-07-21T09:23:04.368Z,100607.20
2018-07-21T09:25:32.632Z,100600.97
2018-07-21T09:28:00.857Z,100608.12
2018-07-21T09:30:29.099Z,100614.62
2018-07-21T09:32:57.353Z,100617.72
2018-07-21T09:35:25.612Z,100615.55
2018-07-21T09:37:53.833Z,100610.58
2018-07-21T09:40:22.073Z,100610.16
2018-07-21T09:42:50.293Z,100612.62
2018-07-21T09:45:18.526Z,100612.48
2018-07-21T09:47:46.741Z,100610.60
2018-07-21T09:50:14.979Z,100610.28
2018-07-21T09:52:43.216Z,100615.63
2018-07-21T09:55:11.461Z,100615.31
2018-07-21T09:57:39.809Z,100617.06
2018-07-21T10:00:09.925Z,100613.61
2018-07-21T10:02:38.292Z,100611.84
2018-07-21T10:05:07.205Z,100609.45
2018-07-21T10:07:35.497Z,100609.55
2018-07-21T10:10:03.819Z,100611.52
2018-07-21T10:12:32.054Z,100610.91
2018-07-21T10:15:00.280Z,100607.17
2018-07-21T10:17:28.529Z,100608.38
2018-07-21T10:19:56.776Z,100612.92
2018-07-21T10:22:25.105Z,100607.93
2018-07-21T10:24:58.616Z,100614.09
2018-07-21T10:27:32.129Z,100619.38
2018-07-21T10:30:00.365Z,100612.57
2018-07-21T10:34:55.821Z,100610.64
2018-07-21T10:37:24.036Z,100612.02
2018-07-21T10:39:52.245Z,100614.22
2018-07-21T10:42:20.469Z,100608.30
2018-07-21T10:44:48.753Z,100611.02
2018-07-21T10:47:17.012Z,100607.16
2018-07-21T10:49:45.256Z,100609.29
2018-07-21T10:52:13.477Z,100605.13
2018-07-21T10:54:41.704Z,100603.21
2018-07-21T10:57:09.908Z,100602.20
2018-07-21T10:59:38.144Z,100601.42
2018-07-21T11:02:06.378Z,100603.98
2018-07-21T11:04:34.617Z,100603.43
2018-07-21T11:07:02.857Z,100599.48
2018-07-21T11:09:31.093Z,100596.67
2018-07-21T11:11:59.336Z,100594.59
2018-07-21T11:14:27.544Z,100592.55
2018-07-21T11:16:55.780Z,100603.57
2018-07-21T11:19:24.031Z,100599.88
2018-07-21T11:21:52.369Z,100596.81
2018-07-21T11:24:20.526Z,100593.95
2018-07-21T11:26:48.741Z,100590.00
2018-07-21T11:29:17.009Z,100588.89
2018-07-21T11:31:45.244Z,100592.63
2018-07-21T11:34:13.445Z,100591.63
2018-07-21T11:36:41.674Z,100589.56
2018-07-21T11:39:10.182Z,100594.22
2018-07-21T11:41:38.434Z,100597.52
2018-07-21T11:44:06.652Z,100594.75
2018-07-21T11:46:34.877Z,100600.17
2018-07-21T11:49:03.081Z,100604.05
2018-07-21T11:51:31.340Z,100597.44
2018-07-21T11:53:59.549Z,100598.43
2018-07-21T11:56:27.788Z,100598.43
2018-07-21T11:58:56.013Z,100600.86
2018-07-21T12:01:24.230Z,100600.42
2018-07-21T12:03:52.445Z,100590.77
2018-07-21T12:06:20.704Z,100595.31
2018-07-21T12:08:48.955Z,100596.55
2018-07-21T12:11:17.185Z,100599.19
2018-07-21T12:13:45.390Z,100597.51
2018-07-21T12:16:13.626Z,100598.01
2018-07-21T12:18:41.858Z,100600.63
2018-07-21T12:21:10.085Z,100601.86
2018-07-21T12:23:38.373Z,100599.08
2018-07-21T12:26:07.028Z,100592.98
2018-07-21T12:28:35.261Z,100597.02
2018-07-21T12:31:03.476Z,100591.70
2018-07-21T12:33:31.740Z,100588.89
2018-07-21T12:35:59.981Z,100585.42
2018-07-21T12:38:28.275Z,100589.25
2018-07-21T12:40:56.484Z,100580.77
2018-07-21T12:43:24.708Z,100575.52
2018-07-21T12:45:53.024Z,100573.27
2018-07-21T12:48:21.261Z,100578.34
2018-07-21T12:50:49.469Z,100568.50
2018-07-21T12:53:17.701Z,100575.27
2018-07-21T12:55:45.900Z,100575.64
2018-07-21T12:58:14.109Z,100575.69
2018-07-21T13:00:42.381Z,100581.14
2018-07-21T13:03:10.637Z,100577.62
2018-07-21T13:05:38.849Z,100574.05
2018-07-21T13:08:07.189Z,100572.69
2018-07-21T13:10:35.408Z,100571.61
2018-07-21T13:13:03.644Z,100574.88
2018-07-21T13:15:31.869Z,100571.56
2018-07-21T13:18:00.104Z,100566.81
2018-07-21T13:20:28.320Z,100564.38
2018-07-21T13:22:56.565Z,100563.52
2018-07-21T13:25:24.828Z,100556.72
2018-07-21T13:27:53.044Z,100549.71
2018-07-21T13:30:21.282Z,100555.73
2018-07-21T13:32:49.497Z,100550.45
2018-07-21T13:35:17.730Z,100553.08
2018-07-21T13:37:45.949Z,100549.72
2018-07-21T13:40:14.187Z,100547.00
2018-07-21T13:42:42.412Z,100545.40
2018-07-21T13:45:10.653Z,100542.64
2018-07-21T13:47:38.922Z,100545.45
2018-07-21T13:50:07.204Z,100547.05
2018-07-21T13:52:35.410Z,100542.92
2018-07-21T13:55:03.709Z,100543.53
2018-07-21T13:57:31.884Z,100546.33
2018-07-21T14:00:00.173Z,100537.61
2018-07-21T14:02:28.372Z,100537.31
2018-07-21T14:04:56.600Z,100537.72
2018-07-21T14:07:24.849Z,100542.75
2018-07-21T14:09:53.049Z,100532.52
2018-07-21T14:12:21.293Z,100527.97
2018-07-21T14:14:49.500Z,100527.80
2018-07-21T14:17:17.755Z,100534.12
2018-07-21T14:19:45.976Z,100533.89
2018-07-21T14:22:14.373Z,100532.91
2018-07-21T14:24:42.585Z,100534.85
2018-07-21T14:27:10.833Z,100529.74
2018-07-21T14:29:39.134Z,100533.88
2018-07-21T14:32:07.328Z,100536.78
2018-07-21T14:34:35.536Z,100528.49
2018-07-21T14:37:03.813Z,100531.70
2018-07-21T14:39:32.030Z,100537.16
2018-07-21T14:42:00.260Z,100546.69
2018-07-21T14:44:28.474Z,100548.00
2018-07-21T14:46:56.704Z,100546.27
2018-07-21T14:49:24.951Z,100544.40
2018-07-21T14:51:53.160Z,100544.48
2018-07-21T14:54:21.381Z,100537.44
2018-07-21T14:56:49.593Z,100540.94
2018-07-21T14:59:17.821Z,100541.42
2018-07-21T15:01:46.120Z,100543.63
2018-07-21T15:04:14.329Z,100535.23
2018-07-21T15:06:42.574Z,100546.43
2018-07-21T15:09:11.770Z,100549.77
2018-07-21T15:11:40.022Z,100547.91
2018-07-21T15:14:08.377Z,100548.50
2018-07-21T15:16:36.648Z,100553.73
2018-07-21T15:19:04.856Z,100562.01
2018-07-21T15:21:33.088Z,100559.88
2018-07-21T15:24:01.375Z,100561.27
2018-07-21T15:26:29.536Z,100559.34
2018-07-21T15:28:57.752Z,100550.88
2018-07-21T15:31:25.996Z,100552.33
2018-07-21T15:33:54.209Z,100554.28
2018-07-21T15:36:22.440Z,100548.60
2018-07-21T15:38:50.659Z,100549.13
2018-07-21T15:41:18.889Z,100547.23
2018-07-21T15:43:47.120Z,100551.86
2018-07-21T15:46:15.372Z,100548.80
2018-07-21T15:48:43.582Z,100549.48
2018-07-21T15:51:11.808Z,100553.36
2018-07-21T15:53:40.021Z,100555.11
2018-07-21T15:56:08.269Z,100548.63
2018-07-21T15:58:36.493Z,100545.66
2018-07-21T16:01:04.778Z,100548.73
2018-07-21T16:03:33.005Z,100540.61
2018-07-21T16:06:01.301Z,100549.70
2018-07-21T16:08:29.543Z,100556.84
2018-07-21T16:10:57.764Z,100556.72
2018-07-21T16:13:26.066Z,100557.70
2018-07-21T16:15:54.307Z,100558.95
2018-07-21T16:18:22.516Z,100558.08
2018-07-21T16:20:50.719Z,100553.38
2018-07-21T16:23:18.936Z,100557.66
2018-07-21T16:25:47.144Z,100562.08
2018-07-21T16:28:15.358Z,100563.67
2018-07-21T16:30:43.605Z,100564.30
2018-07-21T16:33:11.813Z,100559.45
2018-07-21T16:35:40.054Z,100568.86
2018-07-21T16:38:08.260Z,100569.73
2018-07-21T16:40:36.493Z,100570.69
2018-07-21T16:43:04.733Z,100567.88
2018-07-21T16:45:32.983Z,100562.21
2018-07-21T16:48:01.207Z,100571.33
2018-07-21T16:50:29.437Z,100568.78
2018-07-21T16:52:57.679Z,100567.03
2018-07-21T16:55:25.937Z,100567.65
2018-07-21T16:57:54.256Z,100567.71
2018-07-21T17:00:22.490Z,100565.89
2018-07-21T17:02:50.736Z,100566.09
2018-07-21T17:05:18.937Z,100565.27
2018-07-21T17:07:47.189Z,100560.77
2018-07-21T17:10:15.429Z,100560.79
2018-07-21T17:12:43.645Z,100562.88
2018-07-21T17:15:11.865Z,100554.91
2018-07-21T17:17:40.089Z,100556.29
2018-07-21T17:20:08.329Z,100561.16
2018-07-21T17:22:36.560Z,100559.84
2018-07-21T17:25:04.776Z,100558.53
2018-07-21T17:27:33.017Z,100555.96
2018-07-21T17:30:01.261Z,100554.38
2018-07-21T17:32:29.531Z,100560.38
2018-07-21T17:34:57.777Z,100558.23
2018-07-21T17:37:26.029Z,100560.48
2018-07-21T17:39:54.235Z,100557.84
2018-07-21T17:42:22.510Z,100561.46
2018-07-21T17:44:50.789Z,100563.48
2018-07-21T17:47:18.980Z,100562.48
2018-07-21T17:49:47.181Z,100565.23
2018-07-21T17:52:15.431Z,100562.92
2018-07-21T17:54:43.676Z,100567.06
2018-07-21T17:57:11.904Z,100568.28
2018-07-21T17:59:40.114Z,100566.52
2018-07-21T18:02:08.415Z,100568.03
2018-07-21T18:04:36.819Z,100569.27
2018-07-21T18:07:05.053Z,100576.72
2018-07-21T18:09:33.301Z,100571.94
2018-07-21T18:12:01.569Z,100575.86
2018-07-21T18:14:29.785Z,100574.20
2018-07-21T18:16:58.010Z,100576.06
2018-07-21T18:19:26.236Z,100574.45
2018-07-21T18:21:54.469Z,100574.00
2018-07-21T18:24:22.689Z,100575.76
2018-07-21T18:26:50.904Z,100574.30
2018-07-21T18:29:19.116Z,100578.83
2018-07-21T18:31:47.403Z,100583.66
2018-07-21T18:34:15.597Z,100591.25
2018-07-21T18:36:43.813Z,100597.20
2018-07-21T18:39:12.709Z,100596.77
2018-07-21T18:41:41.516Z,100599.94
2018-07-21T18:44:09.741Z,100602.38
2018-07-21T18:46:38.131Z,100601.25
2018-07-21T18:49:06.367Z,100599.30
2018-07-21T18:51:34.614Z,100601.48
2018-07-21T18:54:02.821Z,100597.42
2018-07-21T18:56:31.045Z,100600.73
2018-07-21T18:58:59.256Z,100601.25
2018-07-21T19:01:27.485Z,100589.16
2018-07-21T19:03:55.716Z,100606.91
2018-07-21T19:06:23.930Z,100616.84
2018-07-21T19:08:57.529Z,100633.67
2018-07-21T19:11:25.748Z,100655.84
2018-07-21T19:13:54.033Z,100654.94
2018-07-21T19:16:27.472Z,100647.30
2018-07-21T19:18:55.684Z,100651.06
2018-07-21T19:21:23.969Z,100647.30
2018-07-21T19:23:52.433Z,100646.78
2018-07-21T19:26:26.097Z,100642.64
2018-07-21T19:28:54.368Z,100648.58
2018-07-21T19:31:22.653Z,100646.03
2018-07-21T19:33:50.895Z,100648.70
2018-07-21T19:36:19.101Z,100653.44
2018-07-21T19:38:47.316Z,100650.87
2018-07-21T19:41:20.965Z,100656.81
2018-07-21T19:43:49.216Z,100658.17
2018-07-21T19:46:17.431Z,100655.16
2018-07-21T19:48:45.657Z,100657.30
2018-07-21T19:51:13.881Z,100658.95
2018-07-21T19:53:42.122Z,100662.70
2018-07-21T19:56:10.365Z,100655.19
2018-07-21T19:58:38.584Z,100661.20
2018-07-21T20:01:06.837Z,100663.53
2018-07-21T20:03:35.052Z,100660.11
2018-07-21T20:06:03.270Z,100658.11
2018-07-21T20:08:31.562Z,100667.12
2018-07-21T20:10:59.733Z,100663.68
2018-07-21T20:13:27.977Z,100666.53
2018-07-21T20:15:56.181Z,100668.24
2018-07-21T20:18:24.429Z,100664.20
2018-07-21T20:20:52.661Z,100673.05
2018-07-21T20:23:20.872Z,100679.81
2018-07-21T20:25:49.092Z,100679.51
2018-07-21T20:28:17.333Z,100680.25
2018-07-21T20:30:45.558Z,100687.45
2018-07-21T20:33:13.828Z,100691.67
2018-07-21T20:35:42.045Z,100692.64
2018-07-21T20:38:10.291Z,100692.77
2018-07-21T20:40:38.501Z,100699.45
2018-07-21T20:43:06.830Z,100697.48
2018-07-21T20:45:35.077Z,100691.50
2018-07-21T20:48:03.309Z,100699.09
2018-07-21T20:50:31.516Z,100694.12
2018-07-21T20:52:59.736Z,100701.70
2018-07-21T20:55:27.976Z,100700.56
2018-07-21T20:57:59.509Z,100702.11
2018-07-21T21:00:27.827Z,100704.28
2018-07-21T21:02:55.977Z,100703.16
2018-07-21T21:05:24.229Z,100704.50
2018-07-21T21:07:52.474Z,100688.59
2018-07-21T21:10:20.693Z,100697.66
2018-07-21T21:12:48.945Z,100697.58
2018-07-21T21:15:17.185Z,100698.17
2018-07-21T21:17:45.456Z,100703.09
2018-07-21T21:20:13.712Z,100705.56
2018-07-21T21:22:41.969Z,100699.77
2018-07-21T21:25:10.161Z,100704.86
2018-07-21T21:27:38.489Z,100709.13
2018-07-21T21:30:06.751Z,100703.11
2018-07-21T21:32:34.968Z,100701.89
2018-07-21T21:35:03.213Z,100707.14
2018-07-21T21:37:31.448Z,100711.31
2018-07-21T21:39:59.704Z,100710.60
2018-07-21T21:42:28.034Z,100718.39
2018-07-21T21:44:56.191Z,100712.32
2018-07-21T21:47:24.416Z,100721.67
2018-07-21T21:49:52.664Z,100718.91
2018-07-21T21:52:20.894Z,100725.47
2018-07-21T21:54:49.136Z,100728.28
2018-07-21T21:57:17.393Z,100729.75
2018-07-21T21:59:45.636Z,100727.51
2018-07-21T22:02:13.857Z,100725.12
2018-07-21T22:04:42.125Z,100727.36
2018-07-21T22:07:10.337Z,100728.40
2018-07-21T22:09:38.560Z,100729.16
2018-07-21T22:12:06.818Z,100726.27
2018-07-21T22:14:35.034Z,100734.06
2018-07-21T22:17:03.320Z,100727.52
2018-07-21T22:19:32.474Z,100730.86
2018-07-21T22:22:00.705Z,100727.02
2018-07-21T22:24:28.950Z,100735.94
2018-07-21T22:26:57.194Z,100726.50
2018-07-21T22:29:25.405Z,100734.79
2018-07-21T22:31:53.632Z,100736.75
2018-07-21T22:34:21.876Z,100737.89
2018-07-21T22:36:50.121Z,100734.88
2018-07-21T22:39:18.349Z,100740.80
2018-07-21T22:41:46.621Z,100742.46
2018-07-21T22:44:14.943Z,100742.88
2018-07-21T22:46:43.142Z,100740.19
2018-07-21T22:49:11.381Z,100750.45
2018-07-21T22:51:39.604Z,100740.19
2018-07-21T22:54:07.829Z,100743.30
2018-07-21T22:56:36.057Z,100747.25
2018-07-21T22:59:04.292Z,100748.23
2018-07-21T23:01:32.539Z,100759.02
2018-07-21T23:04:00.809Z,100753.00
2018-07-21T23:06:29.029Z,100755.08
2018-07-21T23:08:57.240Z,100755.08
2018-07-21T23:11:25.478Z,100753.42
2018-07-21T23:13:53.689Z,100756.23
2018-07-21T23:16:21.925Z,100754.57
2018-07-21T23:18:50.132Z,100752.91
2018-07-21T23:21:18.369Z,100759.34
2018-07-21T23:23:46.601Z,100763.63
2018-07-21T23:26:14.869Z,100763.53
2018-07-21T23:28:43.077Z,100755.03
2018-07-21T23:31:11.352Z,100763.33
2018-07-21T23:33:39.597Z,100761.36
2018-07-21T23:36:07.841Z,100762.09
2018-07-21T23:38:36.162Z,100762.81
2018-07-21T23:41:04.389Z,100770.00
2018-07-21T23:43:32.609Z,100771.25
2018-07-21T23:46:00.848Z,100766.69
2018-07-21T23:48:29.078Z,100768.76
2018-07-21T23:50:57.313Z,100772.15
2018-07-21T23:53:25.546Z,100770.80
2018-07-21T23:55:53.769Z,100769.14
2018-07-21T23:58:21.986Z,100771.21
